Emporia, Kansas
Current Conditions -  °F | °C
As of 8:53 PM on Tuesday 21 Oct 2014 (Local Time) from KEMP Reporting Station
Clear Clear  
Wind Chill: 62°   Ceiling: Unl
Heat Index: 62°   Visibility: 10mi
Dew Point: 55°   Wind: 9mph
Humidity: 78%   Direction: 140°SE
Pressure: 30.06"   Gusts: NA
Location:  38.41°N, 96.18°W
Report Text: KEMP 220153Z AUTO 14008KT 10SM CLR 17/13 A3006 RMK AO2 SLP179 T01670128
Loading
Personal Weather Stations






























Interactive Weather Map New forecast layout! Learn more

10-Day Weather Forecast

Advertisements
Track Severe Weather on mobile